createdAt,value
2019-02-07T00:02:12.249Z,-3.68
2019-02-07T00:04:42.895Z,-3.64
2019-02-07T00:07:13.928Z,-3.61
2019-02-07T00:09:44.661Z,-3.63
2019-02-07T00:12:15.299Z,-3.63
2019-02-07T00:14:45.978Z,-3.67
2019-02-07T00:17:16.651Z,-3.69
2019-02-07T00:19:47.556Z,-3.78
2019-02-07T00:22:18.031Z,-3.83
2019-02-07T00:24:48.652Z,-3.81
2019-02-07T00:27:19.378Z,-3.84
2019-02-07T00:29:49.997Z,-3.83
2019-02-07T00:32:20.730Z,-3.84
2019-02-07T00:34:51.489Z,-3.87
2019-02-07T00:37:22.128Z,-3.89
2019-02-07T00:39:52.854Z,-3.89
2019-02-07T00:42:23.579Z,-3.90
2019-02-07T00:44:54.354Z,-3.91
2019-02-07T00:47:25.357Z,-3.91
2019-02-07T00:49:56.012Z,-3.90
2019-02-07T00:52:26.671Z,-3.84
2019-02-07T00:54:57.192Z,-3.85
2019-02-07T00:57:27.947Z,-3.84
2019-02-07T00:59:58.852Z,-3.84
2019-02-07T01:02:29.781Z,-3.88
2019-02-07T01:05:00.466Z,-3.93
2019-02-07T01:07:31.157Z,-3.98
2019-02-07T01:10:01.883Z,-4.06
2019-02-07T01:12:32.557Z,-4.12
2019-02-07T01:15:03.578Z,-4.18
2019-02-07T01:17:34.415Z,-4.21
2019-02-07T01:20:07.014Z,-4.22
2019-02-07T01:22:37.752Z,-4.23
2019-02-07T01:25:10.486Z,-4.25
2019-02-07T01:27:41.109Z,-4.26
2019-02-07T01:30:14.817Z,-4.23
2019-02-07T01:32:45.858Z,-4.22
2019-02-07T01:35:16.938Z,-4.18
2019-02-07T01:37:47.828Z,-4.17
2019-02-07T01:40:20.071Z,-4.15
2019-02-07T01:42:50.701Z,-4.16
2019-02-07T01:45:22.011Z,-4.15
2019-02-07T01:47:52.750Z,-4.14
2019-02-07T01:50:24.393Z,-4.17
2019-02-07T01:52:55.447Z,-4.17
2019-02-07T01:55:26.113Z,-4.22
2019-02-07T01:57:57.073Z,-4.27
2019-02-07T02:00:27.867Z,-4.33
2019-02-07T02:02:58.446Z,-4.31
2019-02-07T02:05:29.789Z,-4.32
2019-02-07T02:08:00.399Z,-4.32
2019-02-07T02:10:31.190Z,-4.29
2019-02-07T02:13:01.871Z,-4.26
2019-02-07T02:15:32.595Z,-4.30
2019-02-07T02:18:03.333Z,-4.26
2019-02-07T02:20:34.076Z,-4.28
2019-02-07T02:23:04.817Z,-4.29
2019-02-07T02:25:35.710Z,-4.33
2019-02-07T02:28:06.780Z,-4.33
2019-02-07T02:30:37.867Z,-4.39
2019-02-07T02:33:08.438Z,-4.42
2019-02-07T02:35:39.049Z,-4.42
2019-02-07T02:38:09.604Z,-4.43
2019-02-07T02:40:40.240Z,-4.45
2019-02-07T02:43:11.302Z,-4.46
2019-02-07T02:45:42.388Z,-4.47
2019-02-07T02:48:13.047Z,-4.47
2019-02-07T02:50:43.637Z,-4.45
2019-02-07T02:53:14.384Z,-4.50
2019-02-07T02:55:45.473Z,-4.54
2019-02-07T02:58:19.532Z,-4.55
2019-02-07T03:01:09.247Z,-4.54
2019-02-07T03:03:58.853Z,-4.59
2019-02-07T03:06:48.487Z,-4.58
2019-02-07T03:09:38.033Z,-4.60
2019-02-07T03:12:27.949Z,-4.62
2019-02-07T03:15:17.449Z,-4.65
2019-02-07T03:18:06.977Z,-4.62
2019-02-07T03:20:56.597Z,-4.55
2019-02-07T03:23:46.288Z,-4.50
2019-02-07T03:26:35.853Z,-4.49
2019-02-07T03:29:25.589Z,-4.45
2019-02-07T03:32:09.893Z,-4.45
2019-02-07T03:34:48.262Z,-4.43
2019-02-07T03:37:38.018Z,-4.45
2019-02-07T03:40:21.310Z,-4.44
2019-02-07T03:43:03.855Z,-4.45
2019-02-07T03:45:42.885Z,-4.47
2019-02-07T03:48:32.486Z,-4.45
2019-02-07T03:51:21.984Z,-4.47
2019-02-07T03:54:11.588Z,-4.50
2019-02-07T03:57:01.139Z,-4.50
2019-02-07T03:59:46.198Z,-4.51
2019-02-07T04:02:35.688Z,-4.51
2019-02-07T04:05:26.485Z,-4.47
2019-02-07T04:08:15.911Z,-4.50
2019-02-07T04:11:05.370Z,-4.52
2019-02-07T04:13:54.857Z,-4.49
2019-02-07T04:16:44.950Z,-4.51
2019-02-07T04:19:34.680Z,-4.50
2019-02-07T04:22:24.800Z,-4.50
2019-02-07T04:25:14.310Z,-4.51
2019-02-07T04:28:04.999Z,-4.52
2019-02-07T04:30:54.593Z,-4.55
2019-02-07T04:33:44.192Z,-4.62
2019-02-07T04:36:24.458Z,-4.68
2019-02-07T04:39:09.064Z,-4.68
2019-02-07T04:41:58.917Z,-4.69
2019-02-07T04:44:48.460Z,-4.77
2019-02-07T04:47:38.435Z,-4.77
2019-02-07T04:50:30.125Z,-4.76
2019-02-07T04:53:19.658Z,-4.74
2019-02-07T04:56:09.277Z,-4.74
2019-02-07T04:58:48.528Z,-4.69
2019-02-07T05:01:38.150Z,-4.68
2019-02-07T05:04:27.737Z,-4.63
2019-02-07T05:07:13.541Z,-4.62
2019-02-07T05:10:03.088Z,-4.58
2019-02-07T05:12:54.529Z,-4.59
2019-02-07T05:15:44.025Z,-4.59
2019-02-07T05:18:33.561Z,-4.59
2019-02-07T05:21:18.338Z,-4.54
2019-02-07T05:24:07.841Z,-4.52
2019-02-07T05:26:57.493Z,-4.54
2019-02-07T05:29:36.885Z,-4.52
2019-02-07T05:32:23.947Z,-4.53
2019-02-07T05:35:13.555Z,-4.46
2019-02-07T05:38:03.158Z,-4.45
2019-02-07T05:40:52.751Z,-4.42
2019-02-07T05:43:42.459Z,-4.42
2019-02-07T05:46:32.100Z,-4.42
2019-02-07T05:49:19.319Z,-4.45
2019-02-07T05:52:09.280Z,-4.49
2019-02-07T05:54:58.992Z,-4.51
2019-02-07T05:57:48.778Z,-4.50
2019-02-07T06:00:38.263Z,-4.48
2019-02-07T06:03:27.990Z,-4.40
2019-02-07T06:06:12.049Z,-4.34
2019-02-07T06:09:01.509Z,-4.29
2019-02-07T06:11:41.690Z,-4.26
2019-02-07T06:14:31.089Z,-4.23
2019-02-07T06:17:16.299Z,-4.18
2019-02-07T06:19:55.080Z,-4.13
2019-02-07T06:22:44.798Z,-4.11
2019-02-07T06:25:29.630Z,-4.11
2019-02-07T06:28:19.677Z,-4.05
2019-02-07T06:31:09.009Z,-4.06
2019-02-07T06:33:59.181Z,-4.01
2019-02-07T06:36:49.432Z,-3.96
2019-02-07T06:42:39.524Z,-3.85
2019-02-07T06:45:29.435Z,-3.79
2019-02-07T06:48:10.443Z,-3.71
2019-02-07T06:50:59.866Z,-3.54
2019-02-07T06:53:49.353Z,-3.42
2019-02-07T06:56:38.725Z,-3.27
2019-02-07T06:59:28.287Z,-3.21
2019-02-07T07:02:17.751Z,-3.22
2019-02-07T07:05:02.263Z,-3.17
2019-02-07T07:07:51.700Z,-3.10
2019-02-07T07:10:40.921Z,-2.98
2019-02-07T07:13:21.707Z,-2.83
2019-02-07T07:16:12.020Z,-2.67
2019-02-07T07:19:01.560Z,-2.48
2019-02-07T07:21:43.592Z,-2.16
2019-02-07T07:24:32.990Z,-2.27
2019-02-07T07:27:13.023Z,-2.42
2019-02-07T07:30:02.406Z,-2.45
2019-02-07T07:32:47.949Z,-2.26
2019-02-07T07:35:34.292Z,-2.20
2019-02-07T07:38:23.826Z,-2.23
2019-02-07T07:41:13.300Z,-2.32
2019-02-07T07:44:02.567Z,-2.25
2019-02-07T07:46:51.719Z,-2.00
2019-02-07T07:49:41.065Z,-1.74
2019-02-07T07:52:30.715Z,-1.30
2019-02-07T07:55:20.313Z,-0.59
2019-02-07T07:58:02.653Z,0.37
2019-02-07T08:00:52.270Z,0.24
2019-02-07T08:03:41.897Z,0.85
2019-02-07T08:06:31.529Z,1.43
2019-02-07T08:09:21.136Z,1.29
2019-02-07T08:12:10.759Z,1.25
2019-02-07T08:14:57.631Z,1.56
2019-02-07T08:17:47.822Z,1.29
2019-02-07T08:20:37.465Z,0.98
2019-02-07T08:23:14.229Z,1.01
2019-02-07T08:26:03.621Z,1.67
2019-02-07T08:28:46.262Z,2.01
2019-02-07T08:31:31.564Z,2.37
2019-02-07T08:34:15.010Z,2.87
2019-02-07T08:37:04.517Z,3.11
2019-02-07T08:39:47.114Z,3.25
2019-02-07T08:42:35.825Z,2.98
2019-02-07T08:45:29.273Z,2.89
2019-02-07T08:48:18.821Z,3.70
2019-02-07T08:51:03.489Z,3.94
2019-02-07T08:53:52.820Z,3.94
2019-02-07T08:56:42.764Z,3.74
2019-02-07T08:59:32.135Z,4.58
2019-02-07T09:02:13.789Z,4.32
2019-02-07T09:05:03.412Z,5.06
2019-02-07T09:07:48.552Z,5.33
2019-02-07T09:10:39.439Z,4.53
2019-02-07T09:13:28.892Z,4.33
2019-02-07T09:16:18.312Z,4.88
2019-02-07T09:19:07.379Z,5.26
2019-02-07T09:21:57.010Z,5.14
2019-02-07T09:24:46.550Z,5.85
2019-02-07T09:27:36.300Z,6.04
2019-02-07T09:30:31.264Z,5.91
2019-02-07T09:33:21.039Z,6.37
2019-02-07T09:36:10.568Z,6.78
2019-02-07T09:38:54.966Z,7.22
2019-02-07T09:41:45.651Z,7.66
2019-02-07T09:44:36.408Z,8.02
2019-02-07T09:47:26.030Z,7.71
2019-02-07T09:50:15.303Z,8.94
2019-02-07T09:53:04.791Z,8.67
2019-02-07T09:55:46.385Z,9.75
2019-02-07T09:58:35.770Z,8.17
2019-02-07T10:01:25.526Z,8.00
2019-02-07T10:04:14.864Z,9.84
2019-02-07T10:07:04.330Z,10.90
2019-02-07T10:09:53.769Z,9.94
2019-02-07T10:12:43.189Z,10.18
2019-02-07T10:15:29.745Z,9.83
2019-02-07T10:18:12.094Z,10.18
2019-02-07T10:21:01.559Z,9.55
2019-02-07T10:23:51.045Z,10.21
2019-02-07T10:26:40.661Z,11.03
2019-02-07T10:29:30.033Z,10.87
2019-02-07T10:32:19.667Z,11.21
2019-02-07T10:35:07.893Z,10.98
2019-02-07T10:37:57.424Z,12.03
2019-02-07T10:40:45.250Z,12.62
2019-02-07T10:43:34.946Z,10.19
2019-02-07T10:46:24.767Z,11.02
2019-02-07T10:49:14.375Z,12.38
2019-02-07T10:52:04.021Z,11.49
2019-02-07T10:54:51.105Z,9.70
2019-02-07T10:57:40.990Z,10.46
2019-02-07T11:00:38.135Z,9.57
2019-02-07T11:03:28.004Z,9.88
2019-02-07T11:06:17.710Z,11.10
2019-02-07T11:09:07.129Z,11.71
2019-02-07T11:11:56.727Z,10.97
2019-02-07T11:14:46.266Z,9.12
2019-02-07T11:17:30.524Z,8.22
2019-02-07T11:20:20.305Z,7.41
2019-02-07T11:23:09.884Z,7.26
2019-02-07T11:25:59.610Z,7.32
2019-02-07T11:28:49.124Z,6.63
2019-02-07T11:31:35.119Z,7.07
2019-02-07T11:34:25.884Z,6.15
2019-02-07T11:37:15.413Z,5.40
2019-02-07T11:40:04.980Z,5.11
2019-02-07T11:42:54.510Z,4.80
2019-02-07T11:45:44.364Z,4.71
2019-02-07T11:48:34.629Z,4.57
2019-02-07T11:51:24.301Z,4.37
2019-02-07T11:54:14.588Z,4.18
2019-02-07T11:57:04.225Z,4.08
2019-02-07T11:59:53.770Z,4.29
2019-02-07T12:02:42.649Z,4.57
2019-02-07T12:05:32.913Z,4.21
2019-02-07T12:08:22.549Z,3.96
2019-02-07T12:11:12.065Z,3.70
2019-02-07T12:14:01.887Z,3.89
2019-02-07T12:16:51.413Z,4.03
2019-02-07T12:19:39.831Z,4.68
2019-02-07T12:22:27.930Z,4.92
2019-02-07T12:25:18.505Z,4.55
2019-02-07T12:28:08.084Z,4.30
2019-02-07T12:30:57.468Z,4.79
2019-02-07T12:33:46.884Z,4.62
2019-02-07T12:36:32.974Z,4.22
2019-02-07T12:39:14.610Z,3.90
2019-02-07T12:42:03.989Z,3.69
2019-02-07T12:44:53.564Z,3.48
2019-02-07T12:47:43.084Z,3.32
2019-02-07T12:50:31.309Z,3.51
2019-02-07T12:53:20.899Z,3.57
2019-02-07T12:56:10.292Z,3.52
2019-02-07T12:58:59.864Z,3.57
2019-02-07T13:01:48.591Z,3.65
2019-02-07T13:04:38.047Z,3.68
2019-02-07T13:07:36.224Z,4.07
2019-02-07T13:10:28.576Z,4.41
2019-02-07T13:13:18.092Z,4.40
2019-02-07T13:16:07.512Z,4.47
2019-02-07T13:18:57.386Z,4.59
2019-02-07T13:21:47.047Z,4.77
2019-02-07T13:24:36.444Z,4.73
2019-02-07T13:27:26.127Z,4.70
2019-02-07T13:30:07.891Z,4.82
2019-02-07T13:32:51.847Z,4.67
2019-02-07T13:35:38.205Z,4.84
2019-02-07T13:38:27.664Z,4.80
2019-02-07T13:41:17.154Z,4.63
2019-02-07T13:44:06.770Z,4.63
2019-02-07T13:46:56.403Z,4.62
2019-02-07T13:49:51.954Z,4.55
2019-02-07T13:52:27.550Z,4.75
2019-02-07T13:55:17.024Z,4.63
2019-02-07T13:57:57.504Z,4.49
2019-02-07T14:00:36.037Z,4.51
2019-02-07T14:03:25.791Z,4.51
2019-02-07T14:06:15.976Z,4.51
2019-02-07T14:09:05.257Z,4.49
2019-02-07T14:11:48.144Z,4.51
2019-02-07T14:14:37.638Z,4.48
2019-02-07T14:17:26.464Z,4.39
2019-02-07T14:20:10.348Z,4.10
2019-02-07T14:22:52.069Z,3.93
2019-02-07T14:25:30.206Z,3.76
2019-02-07T14:28:13.583Z,3.50
2019-02-07T14:31:00.824Z,3.53
2019-02-07T14:33:41.624Z,3.42
2019-02-07T14:36:31.144Z,3.33
2019-02-07T14:39:20.543Z,3.31
2019-02-07T14:42:09.905Z,3.30
2019-02-07T14:44:53.947Z,3.17
2019-02-07T14:47:24.803Z,3.07
2019-02-07T14:49:55.604Z,2.91
2019-02-07T14:52:26.403Z,2.78
2019-02-07T14:54:57.582Z,2.76
2019-02-07T14:57:28.327Z,2.60
2019-02-07T14:59:59.820Z,2.51
2019-02-07T15:02:30.490Z,2.40
2019-02-07T15:05:01.209Z,2.38
2019-02-07T15:07:31.909Z,2.34
2019-02-07T15:10:02.589Z,2.28
2019-02-07T15:12:33.209Z,2.23
2019-02-07T15:15:03.829Z,2.18
2019-02-07T15:17:34.458Z,2.15
2019-02-07T15:20:08.539Z,2.13
2019-02-07T15:22:39.128Z,2.07
2019-02-07T15:25:10.622Z,2.01
2019-02-07T15:27:41.308Z,1.99
2019-02-07T15:30:17.701Z,1.90
2019-02-07T15:32:49.964Z,1.85
2019-02-07T15:35:25.800Z,1.77
2019-02-07T15:38:01.859Z,1.80
2019-02-07T15:40:32.605Z,1.68
2019-02-07T15:43:03.869Z,1.68
2019-02-07T15:45:36.717Z,1.61
2019-02-07T15:48:26.443Z,1.59
2019-02-07T15:51:23.873Z,1.62
2019-02-07T15:54:21.915Z,1.63
2019-02-07T15:56:58.115Z,1.68
2019-02-07T15:59:50.868Z,1.62
2019-02-07T16:02:26.390Z,1.57
2019-02-07T16:05:00.858Z,1.56
2019-02-07T16:07:31.540Z,1.57
2019-02-07T16:10:02.129Z,1.54
2019-02-07T16:12:32.884Z,1.54
2019-02-07T16:15:03.664Z,1.53
2019-02-07T16:17:34.318Z,1.47
2019-02-07T16:20:07.085Z,1.54
2019-02-07T16:22:37.924Z,1.63
2019-02-07T16:25:10.844Z,1.60
2019-02-07T16:27:41.405Z,1.51
2019-02-07T16:30:21.746Z,1.48
2019-02-07T16:32:52.444Z,1.39
2019-02-07T16:35:26.304Z,1.35
2019-02-07T16:38:01.742Z,1.37
2019-02-07T16:40:32.389Z,1.34
2019-02-07T16:43:03.064Z,1.25
2019-02-07T16:45:33.841Z,1.24
2019-02-07T16:48:05.087Z,1.16
2019-02-07T16:50:36.224Z,1.07
2019-02-07T16:53:08.429Z,1.14
2019-02-07T16:55:39.380Z,1.10
2019-02-07T16:58:10.311Z,1.02
2019-02-07T17:00:41.889Z,0.97
2019-02-07T17:03:14.388Z,0.92
2019-02-07T17:05:45.629Z,0.83
2019-02-07T17:08:18.690Z,0.85
2019-02-07T17:10:50.804Z,0.88
2019-02-07T17:13:21.924Z,0.94
2019-02-07T17:15:53.884Z,0.96
2019-02-07T17:18:25.671Z,0.93
2019-02-07T17:20:56.289Z,0.93
2019-02-07T17:23:27.524Z,0.88
2019-02-07T17:25:58.591Z,0.81
2019-02-07T17:28:29.366Z,0.67
2019-02-07T17:31:00.091Z,0.64
2019-02-07T17:33:31.271Z,0.88
2019-02-07T17:36:02.048Z,0.92
2019-02-07T17:38:32.724Z,0.67
2019-02-07T17:41:03.429Z,0.71
2019-02-07T17:43:35.184Z,0.65
2019-02-07T17:46:05.927Z,0.65
2019-02-07T17:48:37.849Z,0.48
2019-02-07T17:51:08.624Z,0.44
2019-02-07T17:53:42.635Z,0.59
2019-02-07T17:56:32.749Z,0.64
2019-02-07T17:59:06.128Z,0.72
2019-02-07T18:01:39.862Z,0.78
2019-02-07T18:04:15.548Z,0.91
2019-02-07T18:06:56.393Z,0.95
2019-02-07T18:09:36.704Z,1.04
2019-02-07T18:12:09.102Z,1.06
2019-02-07T18:14:43.470Z,1.13
2019-02-07T18:17:17.682Z,1.13
2019-02-07T18:19:48.708Z,1.24
2019-02-07T18:22:19.789Z,1.24
2019-02-07T18:24:57.385Z,1.27
2019-02-07T18:27:29.479Z,1.26
2019-02-07T18:30:03.922Z,1.24
2019-02-07T18:32:38.467Z,1.23
2019-02-07T18:35:11.004Z,1.24
2019-02-07T18:37:41.801Z,1.26
2019-02-07T18:40:19.389Z,1.30
2019-02-07T18:42:51.476Z,1.31
2019-02-07T18:45:25.031Z,1.36
2019-02-07T18:47:56.833Z,1.49
2019-02-07T18:50:35.013Z,1.53
2019-02-07T18:53:06.965Z,1.51
2019-02-07T18:55:37.687Z,1.53
2019-02-07T18:58:12.049Z,1.48
2019-02-07T19:00:43.137Z,1.51
2019-02-07T19:03:16.839Z,1.54
2019-02-07T19:05:59.856Z,1.55
2019-02-07T19:08:32.890Z,1.58
2019-02-07T19:11:04.944Z,1.64
2019-02-07T19:13:39.942Z,1.63
2019-02-07T19:16:19.232Z,1.64
2019-02-07T19:18:57.405Z,1.63
2019-02-07T19:21:36.459Z,1.66
2019-02-07T19:24:10.979Z,1.65
2019-02-07T19:26:44.777Z,1.60
2019-02-07T19:29:16.740Z,1.53
2019-02-07T19:31:48.415Z,1.54
2019-02-07T19:34:22.797Z,1.52
2019-02-07T19:36:57.514Z,1.59
2019-02-07T19:39:31.916Z,1.57
2019-02-07T19:42:07.349Z,1.67
2019-02-07T19:44:42.676Z,1.65
2019-02-07T19:47:18.020Z,1.64
2019-02-07T19:49:53.454Z,1.71
2019-02-07T19:52:31.444Z,1.73
2019-02-07T19:55:03.446Z,1.74
2019-02-07T19:57:35.302Z,1.72
2019-02-07T20:00:14.629Z,1.72
2019-02-07T20:02:49.404Z,1.65
2019-02-07T20:05:24.825Z,1.65
2019-02-07T20:07:55.599Z,1.61
2019-02-07T20:10:37.445Z,1.65
2019-02-07T20:13:11.632Z,1.62
2019-02-07T20:15:44.168Z,1.63
2019-02-07T20:18:17.369Z,1.62
2019-02-07T20:20:50.165Z,1.66
2019-02-07T20:23:28.049Z,1.68
2019-02-07T20:26:02.545Z,1.74
2019-02-07T20:28:34.328Z,1.74
2019-02-07T20:31:12.905Z,1.73
2019-02-07T20:33:47.425Z,1.75
2019-02-07T20:36:22.207Z,1.73
2019-02-07T20:38:56.940Z,1.74
2019-02-07T20:41:31.411Z,1.71
2019-02-07T20:44:04.553Z,1.67
2019-02-07T20:46:38.628Z,1.64
2019-02-07T20:49:13.828Z,1.67
2019-02-07T20:51:45.603Z,1.66
2019-02-07T20:54:17.840Z,1.64
2019-02-07T20:56:53.343Z,1.60
2019-02-07T20:59:25.124Z,1.61
2019-02-07T21:01:58.916Z,1.60
2019-02-07T21:04:33.073Z,1.60
2019-02-07T21:07:06.574Z,1.53
2019-02-07T21:09:42.107Z,1.49
2019-02-07T21:12:14.375Z,1.47
2019-02-07T21:14:48.129Z,1.45
2019-02-07T21:17:27.815Z,1.41
2019-02-07T21:19:59.956Z,1.41
2019-02-07T21:22:34.759Z,1.40
2019-02-07T21:25:16.172Z,1.40
2019-02-07T21:27:47.909Z,1.40
2019-02-07T21:30:25.413Z,1.41
2019-02-07T21:32:58.116Z,1.40
2019-02-07T21:35:31.036Z,1.40
2019-02-07T21:38:01.907Z,1.39
2019-02-07T21:40:34.915Z,1.40
2019-02-07T21:43:07.936Z,1.40
2019-02-07T21:45:38.792Z,1.39
2019-02-07T21:48:15.244Z,1.39
2019-02-07T21:50:45.820Z,1.37
2019-02-07T21:53:16.920Z,1.38
2019-02-07T21:55:47.501Z,1.37
2019-02-07T21:58:18.472Z,1.37
2019-02-07T22:00:50.193Z,1.36
2019-02-07T22:03:20.739Z,1.33
2019-02-07T22:05:51.372Z,1.32
2019-02-07T22:08:22.133Z,1.33
2019-02-07T22:10:52.777Z,1.32
2019-02-07T22:13:23.364Z,1.30
2019-02-07T22:15:54.255Z,1.31
2019-02-07T22:18:24.735Z,1.29
2019-02-07T22:20:56.060Z,1.28
2019-02-07T22:23:26.657Z,1.28
2019-02-07T22:25:57.170Z,1.31
2019-02-07T22:28:27.788Z,1.30
2019-02-07T22:30:58.471Z,1.22
2019-02-07T22:33:29.006Z,1.20
2019-02-07T22:35:59.605Z,1.25
2019-02-07T22:38:30.502Z,1.28
2019-02-07T22:41:00.890Z,1.27
2019-02-07T22:43:31.212Z,1.32
2019-02-07T22:46:01.661Z,1.35
2019-02-07T22:48:32.150Z,1.28
2019-02-07T22:51:02.539Z,1.30
2019-02-07T22:53:33.433Z,1.26
2019-02-07T22:56:04.045Z,1.33
2019-02-07T22:58:34.549Z,1.33
2019-02-07T23:01:50.520Z,1.30
2019-02-07T23:04:22.641Z,1.25
2019-02-07T23:06:53.213Z,1.25
2019-02-07T23:09:31.192Z,1.26
2019-02-07T23:12:01.736Z,1.28
2019-02-07T23:14:32.381Z,1.33
2019-02-07T23:17:03.138Z,1.33
2019-02-07T23:19:33.768Z,1.32
2019-02-07T23:22:04.657Z,1.30
2019-02-07T23:24:35.546Z,1.32
2019-02-07T23:27:06.326Z,1.31
2019-02-07T23:29:37.010Z,1.32
2019-02-07T23:32:07.938Z,1.32
2019-02-07T23:34:38.403Z,1.28
2019-02-07T23:37:08.937Z,1.23
2019-02-07T23:39:39.636Z,1.24
2019-02-07T23:42:10.416Z,1.22
2019-02-07T23:44:40.910Z,1.20
2019-02-07T23:47:11.630Z,1.24
2019-02-07T23:49:42.105Z,1.22
2019-02-07T23:52:13.090Z,1.25
2019-02-07T23:54:43.703Z,1.25
2019-02-07T23:57:14.170Z,1.23
2019-02-07T23:59:45.012Z,1.26
